sensor_id;sensor_type;location;lat;lon;timestamp;P1;durP1;ratioP1;P2;durP2;ratioP2
10479;SDS011;12789;42.610;23.040;2024-03-22T00:01:05;56.60;;;26.83;;
10479;SDS011;12789;42.610;23.040;2024-03-22T00:03:31;47.90;;;25.50;;
10479;SDS011;12789;42.610;23.040;2024-03-22T00:05:57;53.97;;;27.87;;
10479;SDS011;12789;42.610;23.040;2024-03-22T00:08:24;49.67;;;26.57;;
10479;SDS011;12789;42.610;23.040;2024-03-22T00:10:50;48.60;;;27.03;;
10479;SDS011;12789;42.610;23.040;2024-03-22T00:13:17;52.47;;;26.57;;
10479;SDS011;12789;42.610;23.040;2024-03-22T00:15:43;45.57;;;25.30;;
10479;SDS011;12789;42.610;23.040;2024-03-22T00:18:12;45.53;;;24.67;;
10479;SDS011;12789;42.610;23.040;2024-03-22T00:20:37;43.23;;;24.60;;
10479;SDS011;12789;42.610;23.040;2024-03-22T00:23:04;47.13;;;25.50;;
10479;SDS011;12789;42.610;23.040;2024-03-22T00:25:30;47.23;;;27.33;;
10479;SDS011;12789;42.610;23.040;2024-03-22T00:27:57;45.00;;;27.73;;
10479;SDS011;12789;42.610;23.040;2024-03-22T00:30:23;50.67;;;26.70;;
10479;SDS011;12789;42.610;23.040;2024-03-22T00:32:49;52.90;;;29.10;;
10479;SDS011;12789;42.610;23.040;2024-03-22T00:35:17;55.47;;;29.97;;
10479;SDS011;12789;42.610;23.040;2024-03-22T00:37:44;52.50;;;28.97;;
10479;SDS011;12789;42.610;23.040;2024-03-22T00:40:11;55.13;;;30.47;;
10479;SDS011;12789;42.610;23.040;2024-03-22T00:42:38;59.90;;;32.53;;
10479;SDS011;12789;42.610;23.040;2024-03-22T00:45:04;58.00;;;32.37;;
10479;SDS011;12789;42.610;23.040;2024-03-22T00:47:32;66.03;;;32.27;;
10479;SDS011;12789;42.610;23.040;2024-03-22T00:49:57;60.40;;;32.83;;
10479;SDS011;12789;42.610;23.040;2024-03-22T00:52:26;60.40;;;35.30;;
10479;SDS011;12789;42.610;23.040;2024-03-22T00:54:51;70.57;;;37.10;;
10479;SDS011;12789;42.610;23.040;2024-03-22T00:57:18;78.20;;;40.53;;
10479;SDS011;12789;42.610;23.040;2024-03-22T00:59:44;78.07;;;39.93;;
10479;SDS011;12789;42.610;23.040;2024-03-22T01:02:11;77.40;;;38.43;;
10479;SDS011;12789;42.610;23.040;2024-03-22T01:04:36;72.27;;;37.57;;
10479;SDS011;12789;42.610;23.040;2024-03-22T01:07:03;73.93;;;38.23;;
10479;SDS011;12789;42.610;23.040;2024-03-22T01:09:31;67.80;;;33.83;;
10479;SDS011;12789;42.610;23.040;2024-03-22T01:12:01;64.67;;;32.53;;
10479;SDS011;12789;42.610;23.040;2024-03-22T01:14:27;68.60;;;31.97;;
10479;SDS011;12789;42.610;23.040;2024-03-22T01:16:54;59.33;;;32.93;;
10479;SDS011;12789;42.610;23.040;2024-03-22T01:19:20;65.27;;;35.40;;
10479;SDS011;12789;42.610;23.040;2024-03-22T01:21:48;69.30;;;37.40;;
10479;SDS011;12789;42.610;23.040;2024-03-22T01:24:13;69.27;;;37.27;;
10479;SDS011;12789;42.610;23.040;2024-03-22T01:26:41;73.63;;;39.77;;
10479;SDS011;12789;42.610;23.040;2024-03-22T01:29:07;64.67;;;36.17;;
10479;SDS011;12789;42.610;23.040;2024-03-22T01:31:34;67.37;;;35.37;;
10479;SDS011;12789;42.610;23.040;2024-03-22T01:34:00;63.03;;;34.80;;
10479;SDS011;12789;42.610;23.040;2024-03-22T01:36:26;62.37;;;35.80;;
10479;SDS011;12789;42.610;23.040;2024-03-22T01:38:52;69.83;;;34.80;;
10479;SDS011;12789;42.610;23.040;2024-03-22T01:41:19;62.97;;;34.37;;
10479;SDS011;12789;42.610;23.040;2024-03-22T01:43:46;74.57;;;38.20;;
10479;SDS011;12789;42.610;23.040;2024-03-22T01:46:13;71.07;;;39.13;;
10479;SDS011;12789;42.610;23.040;2024-03-22T01:48:39;80.77;;;39.57;;
10479;SDS011;12789;42.610;23.040;2024-03-22T01:51:06;89.50;;;41.73;;
10479;SDS011;12789;42.610;23.040;2024-03-22T01:53:32;90.67;;;41.57;;
10479;SDS011;12789;42.610;23.040;2024-03-22T01:56:00;88.13;;;42.13;;
10479;SDS011;12789;42.610;23.040;2024-03-22T01:58:27;86.57;;;38.80;;
10479;SDS011;12789;42.610;23.040;2024-03-22T02:00:55;76.50;;;34.83;;
10479;SDS011;12789;42.610;23.040;2024-03-22T02:03:21;73.93;;;31.07;;
10479;SDS011;12789;42.610;23.040;2024-03-22T02:05:48;61.40;;;29.67;;
10479;SDS011;12789;42.610;23.040;2024-03-22T02:08:14;60.37;;;29.60;;
10479;SDS011;12789;42.610;23.040;2024-03-22T02:10:40;61.97;;;28.73;;
10479;SDS011;12789;42.610;23.040;2024-03-22T02:13:06;66.13;;;27.57;;
10479;SDS011;12789;42.610;23.040;2024-03-22T02:15:33;62.03;;;26.20;;
10479;SDS011;12789;42.610;23.040;2024-03-22T02:18:03;58.17;;;25.37;;
10479;SDS011;12789;42.610;23.040;2024-03-22T02:20:29;53.73;;;25.33;;
10479;SDS011;12789;42.610;23.040;2024-03-22T02:22:55;62.60;;;24.03;;
10479;SDS011;12789;42.610;23.040;2024-03-22T02:25:23;62.20;;;26.07;;
10479;SDS011;12789;42.610;23.040;2024-03-22T02:27:49;62.73;;;31.77;;
10479;SDS011;12789;42.610;23.040;2024-03-22T02:30:16;74.23;;;36.30;;
10479;SDS011;12789;42.610;23.040;2024-03-22T02:32:42;69.80;;;36.00;;
10479;SDS011;12789;42.610;23.040;2024-03-22T02:35:09;78.73;;;39.20;;
10479;SDS011;12789;42.610;23.040;2024-03-22T02:37:35;86.73;;;38.23;;
10479;SDS011;12789;42.610;23.040;2024-03-22T02:40:02;70.27;;;33.33;;
10479;SDS011;12789;42.610;23.040;2024-03-22T02:42:29;55.67;;;25.77;;
10479;SDS011;12789;42.610;23.040;2024-03-22T02:44:56;57.43;;;23.17;;
10479;SDS011;12789;42.610;23.040;2024-03-22T02:47:22;41.50;;;21.47;;
10479;SDS011;12789;42.610;23.040;2024-03-22T02:49:49;46.20;;;20.37;;
10479;SDS011;12789;42.610;23.040;2024-03-22T02:52:14;50.77;;;19.23;;
10479;SDS011;12789;42.610;23.040;2024-03-22T02:54:41;41.00;;;20.73;;
10479;SDS011;12789;42.610;23.040;2024-03-22T02:57:07;47.20;;;21.33;;
10479;SDS011;12789;42.610;23.040;2024-03-22T02:59:35;51.17;;;21.70;;
10479;SDS011;12789;42.610;23.040;2024-03-22T03:02:01;52.90;;;21.47;;
10479;SDS011;12789;42.610;23.040;2024-03-22T03:04:27;46.13;;;19.83;;
10479;SDS011;12789;42.610;23.040;2024-03-22T03:06:53;38.07;;;16.93;;
10479;SDS011;12789;42.610;23.040;2024-03-22T03:09:21;35.53;;;15.80;;
10479;SDS011;12789;42.610;23.040;2024-03-22T03:11:46;27.37;;;13.10;;
10479;SDS011;12789;42.610;23.040;2024-03-22T03:14:13;29.27;;;12.27;;
10479;SDS011;12789;42.610;23.040;2024-03-22T03:16:40;36.40;;;12.83;;
10479;SDS011;12789;42.610;23.040;2024-03-22T03:19:07;34.93;;;13.40;;
10479;SDS011;12789;42.610;23.040;2024-03-22T03:21:33;41.00;;;12.77;;
10479;SDS011;12789;42.610;23.040;2024-03-22T03:23:59;30.80;;;12.03;;
10479;SDS011;12789;42.610;23.040;2024-03-22T03:26:25;38.37;;;12.67;;
10479;SDS011;12789;42.610;23.040;2024-03-22T03:28:52;27.37;;;11.67;;
10479;SDS011;12789;42.610;23.040;2024-03-22T03:31:19;33.53;;;12.33;;
10479;SDS011;12789;42.610;23.040;2024-03-22T03:33:47;30.00;;;11.73;;
10479;SDS011;12789;42.610;23.040;2024-03-22T03:36:13;32.53;;;11.73;;
10479;SDS011;12789;42.610;23.040;2024-03-22T03:38:40;33.27;;;12.93;;
10479;SDS011;12789;42.610;23.040;2024-03-22T03:41:06;32.97;;;11.60;;
10479;SDS011;12789;42.610;23.040;2024-03-22T03:43:33;27.53;;;13.20;;
10479;SDS011;12789;42.610;23.040;2024-03-22T03:45:59;40.13;;;17.90;;
10479;SDS011;12789;42.610;23.040;2024-03-22T03:48:26;54.87;;;23.20;;
10479;SDS011;12789;42.610;23.040;2024-03-22T03:50:53;53.40;;;24.73;;
10479;SDS011;12789;42.610;23.040;2024-03-22T03:53:24;47.77;;;25.33;;
10479;SDS011;12789;42.610;23.040;2024-03-22T03:55:50;51.53;;;27.33;;
10479;SDS011;12789;42.610;23.040;2024-03-22T03:58:17;60.53;;;28.20;;
10479;SDS011;12789;42.610;23.040;2024-03-22T04:00:43;63.50;;;30.13;;
10479;SDS011;12789;42.610;23.040;2024-03-22T04:03:09;64.70;;;32.67;;
10479;SDS011;12789;42.610;23.040;2024-03-22T04:05:35;59.00;;;29.47;;
10479;SDS011;12789;42.610;23.040;2024-03-22T04:08:04;62.60;;;31.60;;
10479;SDS011;12789;42.610;23.040;2024-03-22T04:10:30;64.77;;;32.83;;
10479;SDS011;12789;42.610;23.040;2024-03-22T04:12:57;84.53;;;34.20;;
10479;SDS011;12789;42.610;23.040;2024-03-22T04:15:23;82.67;;;38.33;;
10479;SDS011;12789;42.610;23.040;2024-03-22T04:17:50;83.10;;;39.70;;
10479;SDS011;12789;42.610;23.040;2024-03-22T04:20:16;78.43;;;40.47;;
10479;SDS011;12789;42.610;23.040;2024-03-22T04:22:43;89.70;;;42.90;;
10479;SDS011;12789;42.610;23.040;2024-03-22T04:25:10;77.97;;;41.33;;
10479;SDS011;12789;42.610;23.040;2024-03-22T04:27:36;73.73;;;38.90;;
10479;SDS011;12789;42.610;23.040;2024-03-22T04:30:02;85.30;;;39.00;;
10479;SDS011;12789;42.610;23.040;2024-03-22T04:32:29;84.27;;;40.77;;
10479;SDS011;12789;42.610;23.040;2024-03-22T04:34:55;80.87;;;43.93;;
10479;SDS011;12789;42.610;23.040;2024-03-22T04:37:22;85.83;;;45.63;;
10479;SDS011;12789;42.610;23.040;2024-03-22T04:39:49;90.57;;;46.70;;
10479;SDS011;12789;42.610;23.040;2024-03-22T04:42:17;82.73;;;42.53;;
10479;SDS011;12789;42.610;23.040;2024-03-22T04:44:43;88.67;;;42.77;;
10479;SDS011;12789;42.610;23.040;2024-03-22T04:47:09;84.30;;;42.30;;
10479;SDS011;12789;42.610;23.040;2024-03-22T04:49:35;98.40;;;44.33;;
10479;SDS011;12789;42.610;23.040;2024-03-22T04:52:04;88.30;;;43.47;;
10479;SDS011;12789;42.610;23.040;2024-03-22T04:54:30;84.33;;;45.97;;
10479;SDS011;12789;42.610;23.040;2024-03-22T04:56:56;96.03;;;49.43;;
10479;SDS011;12789;42.610;23.040;2024-03-22T04:59:28;98.30;;;48.63;;
10479;SDS011;12789;42.610;23.040;2024-03-22T05:01:54;92.87;;;49.67;;
10479;SDS011;12789;42.610;23.040;2024-03-22T05:04:20;96.50;;;51.20;;
10479;SDS011;12789;42.610;23.040;2024-03-22T05:06:46;93.20;;;50.43;;
10479;SDS011;12789;42.610;23.040;2024-03-22T05:09:13;92.40;;;50.87;;
10479;SDS011;12789;42.610;23.040;2024-03-22T05:11:39;94.00;;;51.10;;
10479;SDS011;12789;42.610;23.040;2024-03-22T05:14:06;95.20;;;49.33;;
10479;SDS011;12789;42.610;23.040;2024-03-22T05:16:33;91.40;;;47.90;;
10479;SDS011;12789;42.610;23.040;2024-03-22T05:19:00;99.23;;;48.57;;
10479;SDS011;12789;42.610;23.040;2024-03-22T05:21:26;98.60;;;48.03;;
10479;SDS011;12789;42.610;23.040;2024-03-22T05:23:53;89.63;;;47.30;;
10479;SDS011;12789;42.610;23.040;2024-03-22T05:26:20;101.33;;;47.63;;
10479;SDS011;12789;42.610;23.040;2024-03-22T05:28:47;93.53;;;50.17;;
10479;SDS011;12789;42.610;23.040;2024-03-22T05:31:13;106.77;;;49.53;;
10479;SDS011;12789;42.610;23.040;2024-03-22T05:33:41;97.20;;;48.17;;
10479;SDS011;12789;42.610;23.040;2024-03-22T05:36:07;97.30;;;45.10;;
10479;SDS011;12789;42.610;23.040;2024-03-22T05:38:36;91.60;;;46.33;;
10479;SDS011;12789;42.610;23.040;2024-03-22T05:41:03;105.43;;;45.63;;
10479;SDS011;12789;42.610;23.040;2024-03-22T05:43:30;89.20;;;44.03;;
10479;SDS011;12789;42.610;23.040;2024-03-22T05:45:56;90.63;;;45.47;;
10479;SDS011;12789;42.610;23.040;2024-03-22T05:48:23;87.93;;;44.47;;
10479;SDS011;12789;42.610;23.040;2024-03-22T05:50:50;90.57;;;43.30;;
10479;SDS011;12789;42.610;23.040;2024-03-22T05:53:17;79.63;;;42.87;;
10479;SDS011;12789;42.610;23.040;2024-03-22T05:55:43;80.50;;;42.03;;
10479;SDS011;12789;42.610;23.040;2024-03-22T05:58:10;82.60;;;43.53;;
10479;SDS011;12789;42.610;23.040;2024-03-22T06:00:35;77.77;;;42.50;;
10479;SDS011;12789;42.610;23.040;2024-03-22T06:03:02;87.73;;;42.40;;
10479;SDS011;12789;42.610;23.040;2024-03-22T06:05:29;92.67;;;41.80;;
10479;SDS011;12789;42.610;23.040;2024-03-22T06:07:57;87.23;;;40.77;;
10479;SDS011;12789;42.610;23.040;2024-03-22T06:10:23;86.30;;;41.53;;
10479;SDS011;12789;42.610;23.040;2024-03-22T06:12:50;84.93;;;40.70;;
10479;SDS011;12789;42.610;23.040;2024-03-22T06:15:15;83.87;;;40.00;;
10479;SDS011;12789;42.610;23.040;2024-03-22T06:17:42;82.00;;;39.33;;
10479;SDS011;12789;42.610;23.040;2024-03-22T06:20:10;78.70;;;40.20;;
10479;SDS011;12789;42.610;23.040;2024-03-22T06:22:38;77.97;;;39.13;;
10479;SDS011;12789;42.610;23.040;2024-03-22T06:25:06;78.57;;;38.37;;
10479;SDS011;12789;42.610;23.040;2024-03-22T06:27:32;80.67;;;36.00;;
10479;SDS011;12789;42.610;23.040;2024-03-22T06:29:58;62.77;;;29.67;;
10479;SDS011;12789;42.610;23.040;2024-03-22T06:32:25;36.27;;;15.20;;
10479;SDS011;12789;42.610;23.040;2024-03-22T06:34:51;28.27;;;15.73;;
10479;SDS011;12789;42.610;23.040;2024-03-22T06:37:17;23.87;;;11.57;;
10479;SDS011;12789;42.610;23.040;2024-03-22T06:39:43;23.80;;;11.33;;
10479;SDS011;12789;42.610;23.040;2024-03-22T06:42:14;22.70;;;11.77;;
10479;SDS011;12789;42.610;23.040;2024-03-22T06:44:40;19.97;;;9.97;;
10479;SDS011;12789;42.610;23.040;2024-03-22T06:47:06;19.83;;;9.30;;
10479;SDS011;12789;42.610;23.040;2024-03-22T06:49:32;14.33;;;7.80;;
10479;SDS011;12789;42.610;23.040;2024-03-22T06:51:59;20.97;;;8.03;;
10479;SDS011;12789;42.610;23.040;2024-03-22T06:54:25;14.83;;;7.13;;
10479;SDS011;12789;42.610;23.040;2024-03-22T06:56:52;15.80;;;7.47;;
10479;SDS011;12789;42.610;23.040;2024-03-22T06:59:19;13.67;;;7.90;;
10479;SDS011;12789;42.610;23.040;2024-03-22T07:01:46;12.53;;;6.97;;
10479;SDS011;12789;42.610;23.040;2024-03-22T07:04:12;16.10;;;7.73;;
10479;SDS011;12789;42.610;23.040;2024-03-22T07:06:39;13.27;;;7.03;;
10479;SDS011;12789;42.610;23.040;2024-03-22T07:09:04;17.47;;;7.80;;
10479;SDS011;12789;42.610;23.040;2024-03-22T07:11:32;12.83;;;7.27;;
10479;SDS011;12789;42.610;23.040;2024-03-22T07:13:58;10.80;;;6.73;;
10479;SDS011;12789;42.610;23.040;2024-03-22T07:16:26;12.77;;;6.67;;
10479;SDS011;12789;42.610;23.040;2024-03-22T07:18:52;11.50;;;6.33;;
10479;SDS011;12789;42.610;23.040;2024-03-22T07:21:19;22.40;;;6.40;;
10479;SDS011;12789;42.610;23.040;2024-03-22T07:23:44;12.97;;;7.20;;
10479;SDS011;12789;42.610;23.040;2024-03-22T07:26:11;60.93;;;32.50;;
10479;SDS011;12789;42.610;23.040;2024-03-22T07:28:37;74.77;;;41.17;;
10479;SDS011;12789;42.610;23.040;2024-03-22T07:31:04;25.90;;;12.23;;
10479;SDS011;12789;42.610;23.040;2024-03-22T07:33:33;19.13;;;9.20;;
10479;SDS011;12789;42.610;23.040;2024-03-22T07:36:01;14.03;;;7.17;;
10479;SDS011;12789;42.610;23.040;2024-03-22T07:38:27;9.17;;;6.63;;
10479;SDS011;12789;42.610;23.040;2024-03-22T07:40:54;13.43;;;7.03;;
10479;SDS011;12789;42.610;23.040;2024-03-22T07:43:20;15.30;;;6.77;;
10479;SDS011;12789;42.610;23.040;2024-03-22T07:45:47;8.27;;;6.17;;
10479;SDS011;12789;42.610;23.040;2024-03-22T07:48:12;9.43;;;6.23;;
10479;SDS011;12789;42.610;23.040;2024-03-22T07:50:41;10.87;;;6.13;;
10479;SDS011;12789;42.610;23.040;2024-03-22T07:53:07;19.20;;;5.60;;
10479;SDS011;12789;42.610;23.040;2024-03-22T07:55:34;8.13;;;4.97;;
10479;SDS011;12789;42.610;23.040;2024-03-22T07:58:00;9.27;;;5.13;;
10479;SDS011;12789;42.610;23.040;2024-03-22T08:00:27;14.73;;;8.30;;
10479;SDS011;12789;42.610;23.040;2024-03-22T08:02:53;6.40;;;4.43;;
10479;SDS011;12789;42.610;23.040;2024-03-22T08:05:22;6.23;;;4.67;;
10479;SDS011;12789;42.610;23.040;2024-03-22T08:07:51;17.27;;;5.27;;
10479;SDS011;12789;42.610;23.040;2024-03-22T08:10:18;7.27;;;4.83;;
10479;SDS011;12789;42.610;23.040;2024-03-22T08:12:43;8.23;;;5.93;;
10479;SDS011;12789;42.610;23.040;2024-03-22T08:15:10;12.13;;;5.37;;
10479;SDS011;12789;42.610;23.040;2024-03-22T08:17:36;9.03;;;5.47;;
10479;SDS011;12789;42.610;23.040;2024-03-22T08:20:04;8.67;;;4.83;;
10479;SDS011;12789;42.610;23.040;2024-03-22T08:22:30;10.10;;;4.77;;
10479;SDS011;12789;42.610;23.040;2024-03-22T08:24:58;8.30;;;5.87;;
10479;SDS011;12789;42.610;23.040;2024-03-22T08:27:27;6.33;;;5.70;;
10479;SDS011;12789;42.610;23.040;2024-03-22T08:29:54;8.23;;;5.13;;
10479;SDS011;12789;42.610;23.040;2024-03-22T08:32:20;13.77;;;6.03;;
10479;SDS011;12789;42.610;23.040;2024-03-22T08:34:46;8.05;;;5.55;;
10479;SDS011;12789;42.610;23.040;2024-03-22T08:37:12;7.32;;;4.93;;
10479;SDS011;12789;42.610;23.040;2024-03-22T08:39:39;11.88;;;8.85;;
10479;SDS011;12789;42.610;23.040;2024-03-22T08:42:06;10.55;;;5.50;;
10479;SDS011;12789;42.610;23.040;2024-03-22T08:44:34;18.80;;;5.40;;
10479;SDS011;12789;42.610;23.040;2024-03-22T08:47:00;7.85;;;5.03;;
10479;SDS011;12789;42.610;23.040;2024-03-22T08:49:27;12.25;;;4.45;;
10479;SDS011;12789;42.610;23.040;2024-03-22T08:51:53;9.73;;;5.15;;
10479;SDS011;12789;42.610;23.040;2024-03-22T08:54:19;6.35;;;4.47;;
10479;SDS011;12789;42.610;23.040;2024-03-22T08:56:45;9.18;;;4.72;;
10479;SDS011;12789;42.610;23.040;2024-03-22T08:59:13;7.85;;;4.55;;
10479;SDS011;12789;42.610;23.040;2024-03-22T09:01:39;99.82;;;72.68;;
10479;SDS011;12789;42.610;23.040;2024-03-22T09:04:06;12.52;;;6.72;;
10479;SDS011;12789;42.610;23.040;2024-03-22T09:06:32;14.05;;;4.95;;
10479;SDS011;12789;42.610;23.040;2024-03-22T09:08:58;5.32;;;4.30;;
10479;SDS011;12789;42.610;23.040;2024-03-22T09:11:24;9.57;;;4.57;;
10479;SDS011;12789;42.610;23.040;2024-03-22T09:13:54;13.73;;;4.63;;
10479;SDS011;12789;42.610;23.040;2024-03-22T09:16:21;5.93;;;4.72;;
10479;SDS011;12789;42.610;23.040;2024-03-22T09:18:49;11.73;;;4.45;;
10479;SDS011;12789;42.610;23.040;2024-03-22T09:21:15;5.45;;;4.80;;
10479;SDS011;12789;42.610;23.040;2024-03-22T09:23:42;5.40;;;4.68;;
10479;SDS011;12789;42.610;23.040;2024-03-22T09:26:08;9.48;;;4.50;;
10479;SDS011;12789;42.610;23.040;2024-03-22T09:28:35;6.53;;;4.03;;
10479;SDS011;12789;42.610;23.040;2024-03-22T09:31:05;10.18;;;4.00;;
10479;SDS011;12789;42.610;23.040;2024-03-22T09:33:34;4.20;;;3.80;;
10479;SDS011;12789;42.610;23.040;2024-03-22T09:36:00;6.53;;;3.80;;
10479;SDS011;12789;42.610;23.040;2024-03-22T09:38:26;4.72;;;3.70;;
10479;SDS011;12789;42.610;23.040;2024-03-22T09:40:53;7.13;;;3.80;;
10479;SDS011;12789;42.610;23.040;2024-03-22T09:43:20;19.75;;;13.13;;
10479;SDS011;12789;42.610;23.040;2024-03-22T09:45:46;5.65;;;4.65;;
10479;SDS011;12789;42.610;23.040;2024-03-22T09:48:13;8.82;;;5.40;;
10479;SDS011;12789;42.610;23.040;2024-03-22T09:50:41;8.93;;;5.38;;
10479;SDS011;12789;42.610;23.040;2024-03-22T09:53:08;7.97;;;4.43;;
10479;SDS011;12789;42.610;23.040;2024-03-22T09:55:35;7.15;;;4.10;;
10479;SDS011;12789;42.610;23.040;2024-03-22T09:58:05;10.02;;;3.80;;
10479;SDS011;12789;42.610;23.040;2024-03-22T10:00:32;5.20;;;3.70;;
10479;SDS011;12789;42.610;23.040;2024-03-22T10:03:01;9.75;;;4.80;;
10479;SDS011;12789;42.610;23.040;2024-03-22T10:05:29;7.22;;;4.45;;
10479;SDS011;12789;42.610;23.040;2024-03-22T10:07:57;10.95;;;5.18;;
10479;SDS011;12789;42.610;23.040;2024-03-22T10:10:23;6.03;;;4.32;;
10479;SDS011;12789;42.610;23.040;2024-03-22T10:12:50;7.10;;;4.85;;
10479;SDS011;12789;42.610;23.040;2024-03-22T10:15:18;4.97;;;3.95;;
10479;SDS011;12789;42.610;23.040;2024-03-22T10:18:25;8.23;;;5.97;;
10479;SDS011;12789;42.610;23.040;2024-03-22T10:20:59;16.35;;;5.05;;
10479;SDS011;12789;42.610;23.040;2024-03-22T10:23:31;16.83;;;4.32;;
10479;SDS011;12789;42.610;23.040;2024-03-22T10:26:12;7.30;;;3.97;;
10479;SDS011;12789;42.610;23.040;2024-03-22T10:28:44;4.90;;;4.40;;
10479;SDS011;12789;42.610;23.040;2024-03-22T10:31:10;6.32;;;3.70;;
10479;SDS011;12789;42.610;23.040;2024-03-22T10:33:39;5.70;;;4.30;;
10479;SDS011;12789;42.610;23.040;2024-03-22T10:36:06;36.95;;;24.00;;
10479;SDS011;12789;42.610;23.040;2024-03-22T10:38:38;5.80;;;3.72;;
10479;SDS011;12789;42.610;23.040;2024-03-22T10:41:05;4.43;;;3.85;;
10479;SDS011;12789;42.610;23.040;2024-03-22T10:43:32;4.90;;;3.95;;
10479;SDS011;12789;42.610;23.040;2024-03-22T10:46:00;4.07;;;3.67;;
10479;SDS011;12789;42.610;23.040;2024-03-22T10:48:29;6.25;;;5.05;;
10479;SDS011;12789;42.610;23.040;2024-03-22T10:50:56;13.55;;;7.30;;
10479;SDS011;12789;42.610;23.040;2024-03-22T10:53:26;11.80;;;7.75;;
10479;SDS011;12789;42.610;23.040;2024-03-22T10:55:56;4.90;;;3.75;;
10479;SDS011;12789;42.610;23.040;2024-03-22T10:58:26;9.23;;;4.32;;
10479;SDS011;12789;42.610;23.040;2024-03-22T11:00:52;4.90;;;3.80;;
10479;SDS011;12789;42.610;23.040;2024-03-22T11:03:20;4.07;;;3.67;;
10479;SDS011;12789;42.610;23.040;2024-03-22T11:05:46;7.35;;;3.50;;
10479;SDS011;12789;42.610;23.040;2024-03-22T11:08:22;3.83;;;3.40;;
10479;SDS011;12789;42.610;23.040;2024-03-22T11:10:49;20.95;;;16.13;;
10479;SDS011;12789;42.610;23.040;2024-03-22T11:13:23;9.55;;;5.10;;
10479;SDS011;12789;42.610;23.040;2024-03-22T11:15:50;7.38;;;4.30;;
10479;SDS011;12789;42.610;23.040;2024-03-22T11:18:21;5.68;;;4.70;;
10479;SDS011;12789;42.610;23.040;2024-03-22T11:20:48;5.97;;;3.90;;
10479;SDS011;12789;42.610;23.040;2024-03-22T11:23:15;7.07;;;5.03;;
10479;SDS011;12789;42.610;23.040;2024-03-22T11:25:42;9.85;;;4.38;;
10479;SDS011;12789;42.610;23.040;2024-03-22T11:28:08;13.93;;;4.68;;
10479;SDS011;12789;42.610;23.040;2024-03-22T11:30:36;11.30;;;4.03;;
10479;SDS011;12789;42.610;23.040;2024-03-22T11:33:02;4.18;;;3.60;;
10479;SDS011;12789;42.610;23.040;2024-03-22T11:35:28;11.13;;;4.68;;
10479;SDS011;12789;42.610;23.040;2024-03-22T11:37:54;8.35;;;5.15;;
10479;SDS011;12789;42.610;23.040;2024-03-22T11:40:23;5.82;;;4.80;;
10479;SDS011;12789;42.610;23.040;2024-03-22T11:42:51;3.72;;;3.10;;
10479;SDS011;12789;42.610;23.040;2024-03-22T11:45:20;6.18;;;3.60;;
10479;SDS011;12789;42.610;23.040;2024-03-22T11:47:48;11.45;;;4.30;;
10479;SDS011;12789;42.610;23.040;2024-03-22T11:50:15;8.18;;;4.38;;
10479;SDS011;12789;42.610;23.040;2024-03-22T11:52:41;3.85;;;3.50;;
10479;SDS011;12789;42.610;23.040;2024-03-22T11:55:08;16.17;;;3.63;;
10479;SDS011;12789;42.610;23.040;2024-03-22T11:57:35;6.82;;;3.60;;
10479;SDS011;12789;42.610;23.040;2024-03-22T12:00:03;4.20;;;2.92;;
10479;SDS011;12789;42.610;23.040;2024-03-22T12:02:34;3.95;;;3.30;;
10479;SDS011;12789;42.610;23.040;2024-03-22T12:05:03;9.48;;;7.22;;
10479;SDS011;12789;42.610;23.040;2024-03-22T12:07:30;9.00;;;3.88;;
10479;SDS011;12789;42.610;23.040;2024-03-22T12:09:57;9.10;;;3.90;;
10479;SDS011;12789;42.610;23.040;2024-03-22T12:12:23;8.50;;;4.72;;
10479;SDS011;12789;42.610;23.040;2024-03-22T12:14:50;10.00;;;6.95;;
10479;SDS011;12789;42.610;23.040;2024-03-22T12:17:16;3.70;;;3.28;;
10479;SDS011;12789;42.610;23.040;2024-03-22T12:19:43;3.47;;;3.17;;
10479;SDS011;12789;42.610;23.040;2024-03-22T12:22:10;7.38;;;4.07;;
10479;SDS011;12789;42.610;23.040;2024-03-22T12:24:37;8.65;;;7.43;;
10479;SDS011;12789;42.610;23.040;2024-03-22T12:27:03;11.23;;;8.48;;
10479;SDS011;12789;42.610;23.040;2024-03-22T12:29:32;7.93;;;6.72;;
10479;SDS011;12789;42.610;23.040;2024-03-22T12:31:58;4.07;;;3.20;;
10479;SDS011;12789;42.610;23.040;2024-03-22T12:34:26;7.20;;;3.10;;
10479;SDS011;12789;42.610;23.040;2024-03-22T12:36:52;5.55;;;3.50;;
10479;SDS011;12789;42.610;23.040;2024-03-22T12:39:20;5.82;;;3.13;;
10479;SDS011;12789;42.610;23.040;2024-03-22T12:41:46;5.72;;;3.83;;
10479;SDS011;12789;42.610;23.040;2024-03-22T12:44:13;9.00;;;3.55;;
10479;SDS011;12789;42.610;23.040;2024-03-22T12:46:39;4.55;;;3.60;;
10479;SDS011;12789;42.610;23.040;2024-03-22T12:49:07;4.82;;;3.50;;
10479;SDS011;12789;42.610;23.040;2024-03-22T12:51:33;6.97;;;5.25;;
10479;SDS011;12789;42.610;23.040;2024-03-22T12:54:02;6.90;;;5.40;;
10479;SDS011;12789;42.610;23.040;2024-03-22T12:56:29;3.92;;;3.53;;
10479;SDS011;12789;42.610;23.040;2024-03-22T12:58:56;3.17;;;2.90;;
10479;SDS011;12789;42.610;23.040;2024-03-22T13:01:22;5.78;;;2.78;;
10479;SDS011;12789;42.610;23.040;2024-03-22T13:03:49;3.58;;;3.28;;
10479;SDS011;12789;42.610;23.040;2024-03-22T13:06:15;4.00;;;3.00;;
10479;SDS011;12789;42.610;23.040;2024-03-22T13:08:42;4.95;;;3.35;;
10479;SDS011;12789;42.610;23.040;2024-03-22T13:11:07;5.80;;;2.92;;
10479;SDS011;12789;42.610;23.040;2024-03-22T13:13:36;3.05;;;2.83;;
10479;SDS011;12789;42.610;23.040;2024-03-22T13:16:02;6.20;;;3.33;;
10479;SDS011;12789;42.610;23.040;2024-03-22T13:18:29;7.97;;;3.80;;
10479;SDS011;12789;42.610;23.040;2024-03-22T13:20:55;4.18;;;3.55;;
10479;SDS011;12789;42.610;23.040;2024-03-22T13:23:22;13.40;;;4.32;;
10479;SDS011;12789;42.610;23.040;2024-03-22T13:25:48;3.97;;;3.60;;
10479;SDS011;12789;42.610;23.040;2024-03-22T13:28:15;9.80;;;3.25;;
10479;SDS011;12789;42.610;23.040;2024-03-22T13:30:46;17.70;;;4.00;;
10479;SDS011;12789;42.610;23.040;2024-03-22T13:33:14;11.10;;;3.90;;
10479;SDS011;12789;42.610;23.040;2024-03-22T13:35:40;19.23;;;5.47;;
10479;SDS011;12789;42.610;23.040;2024-03-22T13:38:07;17.20;;;5.63;;
10479;SDS011;12789;42.610;23.040;2024-03-22T13:40:38;17.08;;;4.68;;
10479;SDS011;12789;42.610;23.040;2024-03-22T13:43:05;5.38;;;3.80;;
10479;SDS011;12789;42.610;23.040;2024-03-22T13:45:31;4.63;;;3.30;;
10479;SDS011;12789;42.610;23.040;2024-03-22T13:48:00;11.77;;;4.93;;
10479;SDS011;12789;42.610;23.040;2024-03-22T13:50:35;7.35;;;5.38;;
10479;SDS011;12789;42.610;23.040;2024-03-22T13:53:02;12.48;;;3.75;;
10479;SDS011;12789;42.610;23.040;2024-03-22T13:55:27;6.25;;;3.33;;
10479;SDS011;12789;42.610;23.040;2024-03-22T13:57:54;4.88;;;3.22;;
10479;SDS011;12789;42.610;23.040;2024-03-22T14:00:20;8.40;;;3.63;;
10479;SDS011;12789;42.610;23.040;2024-03-22T14:02:50;6.82;;;3.03;;
10479;SDS011;12789;42.610;23.040;2024-03-22T14:05:21;3.90;;;3.15;;
10479;SDS011;12789;42.610;23.040;2024-03-22T14:07:49;5.22;;;3.30;;
10479;SDS011;12789;42.610;23.040;2024-03-22T14:10:15;11.85;;;3.97;;
10479;SDS011;12789;42.610;23.040;2024-03-22T14:12:42;4.32;;;3.78;;
10479;SDS011;12789;42.610;23.040;2024-03-22T14:15:08;7.32;;;3.55;;
10479;SDS011;12789;42.610;23.040;2024-03-22T14:17:35;5.28;;;3.17;;